sensor_id;sensor_type;location;lat;lon;timestamp;temperature;humidity
12276;DHT22;6200;48.144;11.424;2024-03-23T00:55:52;10.60;99.90
12276;DHT22;6200;48.144;11.424;2024-03-23T00:58:19;10.60;99.90
12276;DHT22;6200;48.144;11.424;2024-03-23T01:00:44;10.60;99.90
12276;DHT22;6200;48.144;11.424;2024-03-23T01:03:10;10.50;99.90
12276;DHT22;6200;48.144;11.424;2024-03-23T01:05:35;10.50;99.90
12276;DHT22;6200;48.144;11.424;2024-03-23T01:08:01;10.50;99.90
12276;DHT22;6200;48.144;11.424;2024-03-23T01:10:27;10.50;99.90
12276;DHT22;6200;48.144;11.424;2024-03-23T01:12:53;10.50;99.90
12276;DHT22;6200;48.144;11.424;2024-03-23T01:15:18;10.40;99.90
12276;DHT22;6200;48.144;11.424;2024-03-23T01:17:43;10.40;99.90
12276;DHT22;6200;48.144;11.424;2024-03-23T01:20:09;10.40;99.90
12276;DHT22;6200;48.144;11.424;2024-03-23T01:22:35;11.50;99.90
12276;DHT22;6200;48.144;11.424;2024-03-23T01:25:01;10.20;99.90
12276;DHT22;6200;48.144;11.424;2024-03-23T01:27:26;10.20;99.90
12276;DHT22;6200;48.144;11.424;2024-03-23T01:29:52;10.20;99.90
12276;DHT22;6200;48.144;11.424;2024-03-23T01:32:18;10.20;99.90
12276;DHT22;6200;48.144;11.424;2024-03-23T01:34:44;10.20;99.90
12276;DHT22;6200;48.144;11.424;2024-03-23T01:37:09;10.10;99.90
12276;DHT22;6200;48.144;11.424;2024-03-23T01:39:35;10.10;99.90
12276;DHT22;6200;48.144;11.424;2024-03-23T01:42:00;10.10;99.90
12276;DHT22;6200;48.144;11.424;2024-03-23T01:44:26;10.10;99.90
12276;DHT22;6200;48.144;11.424;2024-03-23T01:46:51;10.00;99.90
12276;DHT22;6200;48.144;11.424;2024-03-23T01:49:17;10.10;99.90
12276;DHT22;6200;48.144;11.424;2024-03-23T01:51:43;10.10;99.90
12276;DHT22;6200;48.144;11.424;2024-03-23T01:54:09;10.10;99.90
12276;DHT22;6200;48.144;11.424;2024-03-23T01:56:35;10.10;99.90
12276;DHT22;6200;48.144;11.424;2024-03-23T01:59:02;10.10;99.90
12276;DHT22;6200;48.144;11.424;2024-03-23T02:01:28;10.00;99.90
12276;DHT22;6200;48.144;11.424;2024-03-23T02:03:53;10.10;99.90
12276;DHT22;6200;48.144;11.424;2024-03-23T02:06:19;10.10;99.90
12276;DHT22;6200;48.144;11.424;2024-03-23T02:08:44;10.00;99.90
12276;DHT22;6200;48.144;11.424;2024-03-23T02:11:10;10.10;99.90
12276;DHT22;6200;48.144;11.424;2024-03-23T02:13:36;10.10;99.90
12276;DHT22;6200;48.144;11.424;2024-03-23T02:16:01;10.10;99.90
12276;DHT22;6200;48.144;11.424;2024-03-23T02:18:27;10.10;99.90
12276;DHT22;6200;48.144;11.424;2024-03-23T02:20:52;10.10;99.90
12276;DHT22;6200;48.144;11.424;2024-03-23T02:23:18;10.10;99.90
12276;DHT22;6200;48.144;11.424;2024-03-23T02:25:44;10.10;99.90
12276;DHT22;6200;48.144;11.424;2024-03-23T02:28:10;10.20;99.90
12276;DHT22;6200;48.144;11.424;2024-03-23T02:30:36;10.20;99.90
12276;DHT22;6200;48.144;11.424;2024-03-23T02:33:02;10.30;99.90
12276;DHT22;6200;48.144;11.424;2024-03-23T02:35:27;10.30;99.90
12276;DHT22;6200;48.144;11.424;2024-03-23T02:37:53;10.30;99.90
12276;DHT22;6200;48.144;11.424;2024-03-23T02:40:20;10.30;99.90
12276;DHT22;6200;48.144;11.424;2024-03-23T02:42:46;10.30;99.90
12276;DHT22;6200;48.144;11.424;2024-03-23T02:45:11;10.30;99.90
12276;DHT22;6200;48.144;11.424;2024-03-23T02:47:37;10.40;99.90
12276;DHT22;6200;48.144;11.424;2024-03-23T02:50:03;10.40;99.90
12276;DHT22;6200;48.144;11.424;2024-03-23T02:52:29;10.40;99.90
12276;DHT22;6200;48.144;11.424;2024-03-23T02:54:55;10.40;99.90
12276;DHT22;6200;48.144;11.424;2024-03-23T02:57:20;10.40;99.90
12276;DHT22;6200;48.144;11.424;2024-03-23T02:59:46;10.40;99.90
12276;DHT22;6200;48.144;11.424;2024-03-23T03:02:12;10.50;99.90
12276;DHT22;6200;48.144;11.424;2024-03-23T03:04:38;10.50;99.90
12276;DHT22;6200;48.144;11.424;2024-03-23T03:07:04;10.50;99.90
12276;DHT22;6200;48.144;11.424;2024-03-23T03:09:29;10.50;99.90
12276;DHT22;6200;48.144;11.424;2024-03-23T03:11:55;10.50;99.90
12276;DHT22;6200;48.144;11.424;2024-03-23T03:14:21;10.40;99.90
12276;DHT22;6200;48.144;11.424;2024-03-23T03:16:46;10.40;99.90
12276;DHT22;6200;48.144;11.424;2024-03-23T03:19:12;10.50;99.90
12276;DHT22;6200;48.144;11.424;2024-03-23T03:21:37;10.50;99.90
12276;DHT22;6200;48.144;11.424;2024-03-23T03:24:05;10.50;99.90
12276;DHT22;6200;48.144;11.424;2024-03-23T03:26:31;10.50;99.90
12276;DHT22;6200;48.144;11.424;2024-03-23T03:28:57;10.50;99.90
12276;DHT22;6200;48.144;11.424;2024-03-23T03:31:22;10.60;99.90
12276;DHT22;6200;48.144;11.424;2024-03-23T03:33:50;10.60;99.90
12276;DHT22;6200;48.144;11.424;2024-03-23T03:36:16;10.60;99.90
12276;DHT22;6200;48.144;11.424;2024-03-23T03:38:41;10.60;99.90
12276;DHT22;6200;48.144;11.424;2024-03-23T03:41:07;10.60;99.90
12276;DHT22;6200;48.144;11.424;2024-03-23T03:43:32;11.20;99.90
12276;DHT22;6200;48.144;11.424;2024-03-23T03:45:59;10.60;99.90
12276;DHT22;6200;48.144;11.424;2024-03-23T03:48:25;10.60;99.90
12276;DHT22;6200;48.144;11.424;2024-03-23T03:50:52;10.50;99.90
12276;DHT22;6200;48.144;11.424;2024-03-23T03:53:18;10.50;99.90
12276;DHT22;6200;48.144;11.424;2024-03-23T03:55:43;10.40;99.90
12276;DHT22;6200;48.144;11.424;2024-03-23T03:58:09;10.40;99.90
12276;DHT22;6200;48.144;11.424;2024-03-23T04:00:34;10.40;99.90
12276;DHT22;6200;48.144;11.424;2024-03-23T04:03:01;10.40;99.90
12276;DHT22;6200;48.144;11.424;2024-03-23T04:05:26;10.40;99.90
12276;DHT22;6200;48.144;11.424;2024-03-23T04:07:52;10.30;99.90
12276;DHT22;6200;48.144;11.424;2024-03-23T04:10:17;10.40;99.90
12276;DHT22;6200;48.144;11.424;2024-03-23T04:12:43;10.40;99.90
12276;DHT22;6200;48.144;11.424;2024-03-23T04:15:10;10.30;99.90
12276;DHT22;6200;48.144;11.424;2024-03-23T04:17:36;10.30;99.90
12276;DHT22;6200;48.144;11.424;2024-03-23T04:20:03;11.70;99.90
12276;DHT22;6200;48.144;11.424;2024-03-23T04:22:30;10.20;99.90
12276;DHT22;6200;48.144;11.424;2024-03-23T04:24:57;10.20;99.90
12276;DHT22;6200;48.144;11.424;2024-03-23T04:27:25;10.20;99.90
12276;DHT22;6200;48.144;11.424;2024-03-23T04:29:51;10.10;99.90
12276;DHT22;6200;48.144;11.424;2024-03-23T04:32:17;10.20;99.90
12276;DHT22;6200;48.144;11.424;2024-03-23T04:34:43;10.10;99.90
12276;DHT22;6200;48.144;11.424;2024-03-23T04:37:09;10.10;99.90
12276;DHT22;6200;48.144;11.424;2024-03-23T04:39:36;10.10;99.90
12276;DHT22;6200;48.144;11.424;2024-03-23T04:42:02;10.10;99.90
12276;DHT22;6200;48.144;11.424;2024-03-23T04:44:28;10.10;99.90
12276;DHT22;6200;48.144;11.424;2024-03-23T04:46:54;10.10;99.90
12276;DHT22;6200;48.144;11.424;2024-03-23T04:49:19;10.10;99.90
12276;DHT22;6200;48.144;11.424;2024-03-23T04:51:45;10.10;99.90
12276;DHT22;6200;48.144;11.424;2024-03-23T04:54:14;10.10;99.90
12276;DHT22;6200;48.144;11.424;2024-03-23T04:56:40;10.10;99.90
12276;DHT22;6200;48.144;11.424;2024-03-23T04:59:05;10.10;99.90
12276;DHT22;6200;48.144;11.424;2024-03-23T05:01:31;10.10;99.90
12276;DHT22;6200;48.144;11.424;2024-03-23T05:03:57;10.10;99.90
12276;DHT22;6200;48.144;11.424;2024-03-23T05:06:23;10.20;99.90
12276;DHT22;6200;48.144;11.424;2024-03-23T05:08:49;10.20;99.90
12276;DHT22;6200;48.144;11.424;2024-03-23T05:11:15;10.20;99.90
12276;DHT22;6200;48.144;11.424;2024-03-23T05:13:41;10.20;99.90
12276;DHT22;6200;48.144;11.424;2024-03-23T05:16:07;10.20;99.90
12276;DHT22;6200;48.144;11.424;2024-03-23T05:18:33;10.20;99.90
12276;DHT22;6200;48.144;11.424;2024-03-23T05:20:58;10.20;99.90
12276;DHT22;6200;48.144;11.424;2024-03-23T05:23:25;10.20;99.90
12276;DHT22;6200;48.144;11.424;2024-03-23T05:25:51;10.20;99.90
12276;DHT22;6200;48.144;11.424;2024-03-23T05:28:20;10.20;99.90
12276;DHT22;6200;48.144;11.424;2024-03-23T05:30:53;10.20;99.90
12276;DHT22;6200;48.144;11.424;2024-03-23T05:33:19;10.30;99.90
12276;DHT22;6200;48.144;11.424;2024-03-23T05:35:45;10.30;99.90
12276;DHT22;6200;48.144;11.424;2024-03-23T05:38:11;10.40;99.90
12276;DHT22;6200;48.144;11.424;2024-03-23T05:40:37;10.40;99.90
12276;DHT22;6200;48.144;11.424;2024-03-23T05:43:08;10.40;99.90
12276;DHT22;6200;48.144;11.424;2024-03-23T05:45:34;10.50;99.90
12276;DHT22;6200;48.144;11.424;2024-03-23T05:48:00;10.50;99.90
12276;DHT22;6200;48.144;11.424;2024-03-23T05:50:25;10.60;99.90
12276;DHT22;6200;48.144;11.424;2024-03-23T05:52:51;10.60;99.90
12276;DHT22;6200;48.144;11.424;2024-03-23T05:55:16;10.60;99.90
12276;DHT22;6200;48.144;11.424;2024-03-23T05:57:42;10.70;99.90
12276;DHT22;6200;48.144;11.424;2024-03-23T06:00:08;10.70;99.90
12276;DHT22;6200;48.144;11.424;2024-03-23T06:02:44;10.70;99.90
12276;DHT22;6200;48.144;11.424;2024-03-23T06:05:13;10.80;99.90
12276;DHT22;6200;48.144;11.424;2024-03-23T06:07:38;10.80;99.90
12276;DHT22;6200;48.144;11.424;2024-03-23T06:10:05;10.80;99.90
12276;DHT22;6200;48.144;11.424;2024-03-23T06:12:31;12.20;99.90
12276;DHT22;6200;48.144;11.424;2024-03-23T06:14:57;11.00;99.90
12276;DHT22;6200;48.144;11.424;2024-03-23T06:17:22;11.10;99.90
12276;DHT22;6200;48.144;11.424;2024-03-23T06:19:48;11.20;99.90
12276;DHT22;6200;48.144;11.424;2024-03-23T06:22:14;11.30;99.90
12276;DHT22;6200;48.144;11.424;2024-03-23T06:24:39;11.30;99.90
12276;DHT22;6200;48.144;11.424;2024-03-23T06:27:05;11.40;99.90
12276;DHT22;6200;48.144;11.424;2024-03-23T06:29:30;11.50;99.90
12276;DHT22;6200;48.144;11.424;2024-03-23T06:31:56;11.50;99.90
12276;DHT22;6200;48.144;11.424;2024-03-23T06:34:21;11.60;99.90
12276;DHT22;6200;48.144;11.424;2024-03-23T06:36:48;11.60;99.90
12276;DHT22;6200;48.144;11.424;2024-03-23T06:39:15;11.60;99.90
12276;DHT22;6200;48.144;11.424;2024-03-23T06:41:42;11.70;99.90
12276;DHT22;6200;48.144;11.424;2024-03-23T06:44:07;11.70;99.90
12276;DHT22;6200;48.144;11.424;2024-03-23T06:46:33;11.80;99.90
12276;DHT22;6200;48.144;11.424;2024-03-23T06:48:58;11.80;99.90
12276;DHT22;6200;48.144;11.424;2024-03-23T06:51:24;11.90;99.90
12276;DHT22;6200;48.144;11.424;2024-03-23T06:53:50;12.00;99.90
12276;DHT22;6200;48.144;11.424;2024-03-23T06:56:15;12.10;99.90
12276;DHT22;6200;48.144;11.424;2024-03-23T06:58:41;12.30;99.90
12276;DHT22;6200;48.144;11.424;2024-03-23T07:01:06;12.50;99.90
12276;DHT22;6200;48.144;11.424;2024-03-23T07:03:32;12.60;99.90
12276;DHT22;6200;48.144;11.424;2024-03-23T07:05:58;12.70;99.90
12276;DHT22;6200;48.144;11.424;2024-03-23T07:08:24;12.90;99.90
12276;DHT22;6200;48.144;11.424;2024-03-23T07:10:49;13.10;99.90
12276;DHT22;6200;48.144;11.424;2024-03-23T07:13:15;13.20;99.90
12276;DHT22;6200;48.144;11.424;2024-03-23T07:15:42;13.30;99.90
12276;DHT22;6200;48.144;11.424;2024-03-23T07:18:08;13.40;99.90
12276;DHT22;6200;48.144;11.424;2024-03-23T07:20:34;13.40;99.90
12276;DHT22;6200;48.144;11.424;2024-03-23T07:22:59;13.50;99.90
12276;DHT22;6200;48.144;11.424;2024-03-23T07:25:25;13.50;99.90
12276;DHT22;6200;48.144;11.424;2024-03-23T07:27:53;13.60;99.90
12276;DHT22;6200;48.144;11.424;2024-03-23T07:30:19;13.60;99.90
12276;DHT22;6200;48.144;11.424;2024-03-23T07:32:44;13.60;99.90
12276;DHT22;6200;48.144;11.424;2024-03-23T07:35:10;13.60;99.90
12276;DHT22;6200;48.144;11.424;2024-03-23T07:37:36;13.50;99.90
12276;DHT22;6200;48.144;11.424;2024-03-23T07:40:01;13.40;99.90
12276;DHT22;6200;48.144;11.424;2024-03-23T07:42:27;13.20;99.90
12276;DHT22;6200;48.144;11.424;2024-03-23T07:44:53;13.00;99.90
12276;DHT22;6200;48.144;11.424;2024-03-23T07:47:22;12.80;99.90
12276;DHT22;6200;48.144;11.424;2024-03-23T07:49:47;12.60;99.90
12276;DHT22;6200;48.144;11.424;2024-03-23T07:52:13;12.30;99.90
12276;DHT22;6200;48.144;11.424;2024-03-23T07:54:38;12.10;99.90
12276;DHT22;6200;48.144;11.424;2024-03-23T07:57:05;12.00;99.90
12276;DHT22;6200;48.144;11.424;2024-03-23T07:59:31;11.80;99.90
12276;DHT22;6200;48.144;11.424;2024-03-23T08:01:59;11.70;99.90
12276;DHT22;6200;48.144;11.424;2024-03-23T08:04:25;11.60;99.90
12276;DHT22;6200;48.144;11.424;2024-03-23T08:06:50;11.50;99.90
12276;DHT22;6200;48.144;11.424;2024-03-23T08:09:16;11.40;99.90
12276;DHT22;6200;48.144;11.424;2024-03-23T08:11:41;11.30;99.90
12276;DHT22;6200;48.144;11.424;2024-03-23T08:14:09;11.20;99.90
12276;DHT22;6200;48.144;11.424;2024-03-23T08:16:35;11.10;99.90
12276;DHT22;6200;48.144;11.424;2024-03-23T08:19:00;11.10;99.90
12276;DHT22;6200;48.144;11.424;2024-03-23T08:21:28;11.10;99.90
12276;DHT22;6200;48.144;11.424;2024-03-23T08:23:54;11.00;99.90
12276;DHT22;6200;48.144;11.424;2024-03-23T08:26:19;11.00;99.90
12276;DHT22;6200;48.144;11.424;2024-03-23T08:28:45;10.90;99.90
12276;DHT22;6200;48.144;11.424;2024-03-23T08:31:11;10.80;99.90
12276;DHT22;6200;48.144;11.424;2024-03-23T08:33:38;10.70;99.90
12276;DHT22;6200;48.144;11.424;2024-03-23T08:36:08;10.60;99.90
12276;DHT22;6200;48.144;11.424;2024-03-23T08:38:34;10.50;99.90
12276;DHT22;6200;48.144;11.424;2024-03-23T08:41:07;10.40;99.90
12276;DHT22;6200;48.144;11.424;2024-03-23T08:43:36;10.30;99.90
12276;DHT22;6200;48.144;11.424;2024-03-23T08:46:08;10.30;99.90
12276;DHT22;6200;48.144;11.424;2024-03-23T08:48:35;10.20;99.90
12276;DHT22;6200;48.144;11.424;2024-03-23T08:51:08;10.20;99.90
12276;DHT22;6200;48.144;11.424;2024-03-23T08:53:34;10.20;99.90
12276;DHT22;6200;48.144;11.424;2024-03-23T08:56:00;10.10;99.90
12276;DHT22;6200;48.144;11.424;2024-03-23T08:58:27;10.10;99.90
12276;DHT22;6200;48.144;11.424;2024-03-23T09:00:54;10.00;99.90
12276;DHT22;6200;48.144;11.424;2024-03-23T09:03:26;10.00;99.90
12276;DHT22;6200;48.144;11.424;2024-03-23T09:05:52;10.00;99.90
12276;DHT22;6200;48.144;11.424;2024-03-23T09:08:18;10.00;99.90
12276;DHT22;6200;48.144;11.424;2024-03-23T09:10:44;9.90;99.90
12276;DHT22;6200;48.144;11.424;2024-03-23T09:13:10;9.90;99.90
12276;DHT22;6200;48.144;11.424;2024-03-23T09:15:37;9.90;99.90
12276;DHT22;6200;48.144;11.424;2024-03-23T09:18:03;9.90;99.90
12276;DHT22;6200;48.144;11.424;2024-03-23T09:20:32;9.90;99.90
12276;DHT22;6200;48.144;11.424;2024-03-23T09:22:58;9.90;99.90
12276;DHT22;6200;48.144;11.424;2024-03-23T09:25:24;9.90;99.90
12276;DHT22;6200;48.144;11.424;2024-03-23T09:27:50;9.80;99.90
12276;DHT22;6200;48.144;11.424;2024-03-23T09:30:15;9.70;99.90
12276;DHT22;6200;48.144;11.424;2024-03-23T09:32:43;9.70;99.90
12276;DHT22;6200;48.144;11.424;2024-03-23T09:35:08;9.70;99.90
12276;DHT22;6200;48.144;11.424;2024-03-23T09:37:34;9.70;99.90
12276;DHT22;6200;48.144;11.424;2024-03-23T09:40:00;9.50;99.90
12276;DHT22;6200;48.144;11.424;2024-03-23T09:42:25;9.40;99.90
12276;DHT22;6200;48.144;11.424;2024-03-23T09:44:51;9.40;99.90
12276;DHT22;6200;48.144;11.424;2024-03-23T09:47:17;9.30;99.90
12276;DHT22;6200;48.144;11.424;2024-03-23T09:49:43;9.30;99.90
12276;DHT22;6200;48.144;11.424;2024-03-23T09:52:09;9.20;99.90
12276;DHT22;6200;48.144;11.424;2024-03-23T09:54:35;9.10;99.90
12276;DHT22;6200;48.144;11.424;2024-03-23T09:57:00;9.00;99.90
12276;DHT22;6200;48.144;11.424;2024-03-23T09:59:26;9.00;99.90
12276;DHT22;6200;48.144;11.424;2024-03-23T10:01:52;9.00;99.90
12276;DHT22;6200;48.144;11.424;2024-03-23T10:07:18;8.90;99.90
12276;DHT22;6200;48.144;11.424;2024-03-23T10:09:45;8.90;99.90
12276;DHT22;6200;48.144;11.424;2024-03-23T10:12:11;8.90;99.90
12276;DHT22;6200;48.144;11.424;2024-03-23T10:14:42;8.80;99.90
12276;DHT22;6200;48.144;11.424;2024-03-23T10:17:19;8.80;99.90
12276;DHT22;6200;48.144;11.424;2024-03-23T10:19:49;8.80;99.90
12276;DHT22;6200;48.144;11.424;2024-03-23T10:22:24;7.80;99.90
12276;DHT22;6200;48.144;11.424;2024-03-23T10:24:50;8.90;99.90
12276;DHT22;6200;48.144;11.424;2024-03-23T10:27:17;8.90;99.90
12276;DHT22;6200;48.144;11.424;2024-03-23T10:29:44;8.90;99.90
12276;DHT22;6200;48.144;11.424;2024-03-23T10:32:14;8.90;99.90
12276;DHT22;6200;48.144;11.424;2024-03-23T10:34:40;8.90;99.90
12276;DHT22;6200;48.144;11.424;2024-03-23T10:37:06;8.90;99.90
12276;DHT22;6200;48.144;11.424;2024-03-23T10:39:39;8.80;99.90
12276;DHT22;6200;48.144;11.424;2024-03-23T10:42:08;8.80;99.90
12276;DHT22;6200;48.144;11.424;2024-03-23T10:44:37;8.70;99.90
12276;DHT22;6200;48.144;11.424;2024-03-23T10:47:04;8.60;99.90
12276;DHT22;6200;48.144;11.424;2024-03-23T10:49:34;8.50;99.90
12276;DHT22;6200;48.144;11.424;2024-03-23T10:52:04;7.30;99.90
12276;DHT22;6200;48.144;11.424;2024-03-23T10:54:30;8.40;99.90
12276;DHT22;6200;48.144;11.424;2024-03-23T10:57:02;8.40;99.90
12276;DHT22;6200;48.144;11.424;2024-03-23T10:59:29;8.50;99.90
12276;DHT22;6200;48.144;11.424;2024-03-23T11:01:57;8.50;99.90
12276;DHT22;6200;48.144;11.424;2024-03-23T11:04:33;8.60;99.90
12276;DHT22;6200;48.144;11.424;2024-03-23T11:06:58;8.60;99.90
12276;DHT22;6200;48.144;11.424;2024-03-23T11:09:43;8.60;99.90
12276;DHT22;6200;48.144;11.424;2024-03-23T11:15:00;8.60;99.90
12276;DHT22;6200;48.144;11.424;2024-03-23T11:17:27;8.70;99.90
12276;DHT22;6200;48.144;11.424;2024-03-23T11:20:00;8.70;99.90
12276;DHT22;6200;48.144;11.424;2024-03-23T11:22:39;8.80;99.90
12276;DHT22;6200;48.144;11.424;2024-03-23T11:25:14;8.80;99.90
12276;DHT22;6200;48.144;11.424;2024-03-23T11:27:40;8.90;99.90
12276;DHT22;6200;48.144;11.424;2024-03-23T11:30:28;8.90;99.90
12276;DHT22;6200;48.144;11.424;2024-03-23T11:32:55;9.00;99.90
12276;DHT22;6200;48.144;11.424;2024-03-23T11:38:06;9.10;99.90
12276;DHT22;6200;48.144;11.424;2024-03-23T11:40:33;9.20;99.90
12276;DHT22;6200;48.144;11.424;2024-03-23T11:43:00;9.20;99.90
12276;DHT22;6200;48.144;11.424;2024-03-23T11:45:26;9.30;99.90
12276;DHT22;6200;48.144;11.424;2024-03-23T11:48:22;9.40;99.90
12276;DHT22;6200;48.144;11.424;2024-03-23T11:50:50;9.50;99.90
12276;DHT22;6200;48.144;11.424;2024-03-23T11:55:52;9.60;99.90
12276;DHT22;6200;48.144;11.424;2024-03-23T11:58:19;9.70;99.90
12276;DHT22;6200;48.144;11.424;2024-03-23T12:00:58;9.70;99.90
12276;DHT22;6200;48.144;11.424;2024-03-23T12:03:25;9.70;99.90
12276;DHT22;6200;48.144;11.424;2024-03-23T12:06:01;9.70;99.90
12276;DHT22;6200;48.144;11.424;2024-03-23T12:08:34;9.70;99.90
12276;DHT22;6200;48.144;11.424;2024-03-23T12:13:39;9.60;99.90
12276;DHT22;6200;48.144;11.424;2024-03-23T12:18:43;9.40;99.90
12276;DHT22;6200;48.144;11.424;2024-03-23T12:21:09;9.40;99.90
12276;DHT22;6200;48.144;11.424;2024-03-23T12:23:35;9.40;99.90
12276;DHT22;6200;48.144;11.424;2024-03-23T12:26:01;9.40;99.90
12276;DHT22;6200;48.144;11.424;2024-03-23T12:28:28;9.30;99.90
12276;DHT22;6200;48.144;11.424;2024-03-23T12:30:53;9.30;99.90
12276;DHT22;6200;48.144;11.424;2024-03-23T12:33:20;9.30;99.90
12276;DHT22;6200;48.144;11.424;2024-03-23T12:35:45;9.30;99.90
12276;DHT22;6200;48.144;11.424;2024-03-23T12:38:11;9.30;99.90
12276;DHT22;6200;48.144;11.424;2024-03-23T12:40:36;9.30;99.90
12276;DHT22;6200;48.144;11.424;2024-03-23T12:43:02;9.50;99.90
12276;DHT22;6200;48.144;11.424;2024-03-23T12:45:27;9.50;99.90
12276;DHT22;6200;48.144;11.424;2024-03-23T12:47:53;9.60;99.90
12276;DHT22;6200;48.144;11.424;2024-03-23T12:50:20;9.50;99.90
12276;DHT22;6200;48.144;11.424;2024-03-23T12:52:45;9.60;99.90
12276;DHT22;6200;48.144;11.424;2024-03-23T12:55:11;9.60;99.90
12276;DHT22;6200;48.144;11.424;2024-03-23T12:57:37;9.70;99.90
12276;DHT22;6200;48.144;11.424;2024-03-23T13:00:03;9.70;99.90
12276;DHT22;6200;48.144;11.424;2024-03-23T13:02:29;9.80;99.90
12276;DHT22;6200;48.144;11.424;2024-03-23T13:04:55;9.80;99.90
12276;DHT22;6200;48.144;11.424;2024-03-23T13:07:22;9.80;99.90
12276;DHT22;6200;48.144;11.424;2024-03-23T13:09:50;9.80;99.90
12276;DHT22;6200;48.144;11.424;2024-03-23T13:12:17;9.90;99.90
12276;DHT22;6200;48.144;11.424;2024-03-23T13:14:44;9.90;99.90
12276;DHT22;6200;48.144;11.424;2024-03-23T13:17:10;9.90;99.90
12276;DHT22;6200;48.144;11.424;2024-03-23T13:19:35;9.90;99.90
12276;DHT22;6200;48.144;11.424;2024-03-23T13:22:01;9.90;99.90
12276;DHT22;6200;48.144;11.424;2024-03-23T13:24:27;9.80;99.90
12276;DHT22;6200;48.144;11.424;2024-03-23T13:26:54;9.80;99.90
12276;DHT22;6200;48.144;11.424;2024-03-23T13:29:20;9.90;99.90
12276;DHT22;6200;48.144;11.424;2024-03-23T13:31:46;9.80;99.90
12276;DHT22;6200;48.144;11.424;2024-03-23T13:34:12;9.80;99.90
12276;DHT22;6200;48.144;11.424;2024-03-23T13:36:42;9.90;99.90
12276;DHT22;6200;48.144;11.424;2024-03-23T13:39:08;9.90;99.90
12276;DHT22;6200;48.144;11.424;2024-03-23T13:41:43;9.90;99.90
12276;DHT22;6200;48.144;11.424;2024-03-23T13:44:09;9.90;99.90
12276;DHT22;6200;48.144;11.424;2024-03-23T13:46:36;9.80;99.90
12276;DHT22;6200;48.144;11.424;2024-03-23T13:49:02;9.80;99.90
12276;DHT22;6200;48.144;11.424;2024-03-23T13:51:28;9.70;99.90
12276;DHT22;6200;48.144;11.424;2024-03-23T13:53:54;9.60;99.90
12276;DHT22;6200;48.144;11.424;2024-03-23T13:56:22;9.50;99.90
12276;DHT22;6200;48.144;11.424;2024-03-23T13:58:47;9.20;99.90
12276;DHT22;6200;48.144;11.424;2024-03-23T14:01:14;8.90;99.90
12276;DHT22;6200;48.144;11.424;2024-03-23T14:03:40;8.70;99.90
12276;DHT22;6200;48.144;11.424;2024-03-23T14:06:07;8.60;99.90
12276;DHT22;6200;48.144;11.424;2024-03-23T14:08:33;8.50;99.90
12276;DHT22;6200;48.144;11.424;2024-03-23T14:11:04;8.30;99.90
12276;DHT22;6200;48.144;11.424;2024-03-23T14:13:30;8.30;99.90
12276;DHT22;6200;48.144;11.424;2024-03-23T14:15:56;8.30;99.90
12276;DHT22;6200;48.144;11.424;2024-03-23T14:18:21;8.30;99.90
12276;DHT22;6200;48.144;11.424;2024-03-23T14:20:51;8.30;99.90
12276;DHT22;6200;48.144;11.424;2024-03-23T14:23:17;8.30;99.90
12276;DHT22;6200;48.144;11.424;2024-03-23T14:25:42;8.30;99.90
12276;DHT22;6200;48.144;11.424;2024-03-23T14:28:08;8.30;99.90
12276;DHT22;6200;48.144;11.424;2024-03-23T14:30:42;8.30;99.90
12276;DHT22;6200;48.144;11.424;2024-03-23T14:33:08;8.30;99.90
12276;DHT22;6200;48.144;11.424;2024-03-23T14:35:34;8.30;99.90
12276;DHT22;6200;48.144;11.424;2024-03-23T14:37:59;8.30;99.90
12276;DHT22;6200;48.144;11.424;2024-03-23T14:40:25;8.30;99.90
12276;DHT22;6200;48.144;11.424;2024-03-23T14:42:56;8.20;99.90
12276;DHT22;6200;48.144;11.424;2024-03-23T14:45:21;8.20;99.90
12276;DHT22;6200;48.144;11.424;2024-03-23T14:47:49;8.20;99.90
12276;DHT22;6200;48.144;11.424;2024-03-23T14:50:14;8.20;99.90
12276;DHT22;6200;48.144;11.424;2024-03-23T14:52:45;8.10;99.90
12276;DHT22;6200;48.144;11.424;2024-03-23T14:55:11;8.10;99.90
12276;DHT22;6200;48.144;11.424;2024-03-23T14:57:37;8.00;99.90
12276;DHT22;6200;48.144;11.424;2024-03-23T15:00:07;7.90;99.90
12276;DHT22;6200;48.144;11.424;2024-03-23T15:02:39;7.80;99.90
12276;DHT22;6200;48.144;11.424;2024-03-23T15:05:05;7.70;99.90
12276;DHT22;6200;48.144;11.424;2024-03-23T15:07:32;7.60;99.90
12276;DHT22;6200;48.144;11.424;2024-03-23T15:09:58;7.50;99.90
12276;DHT22;6200;48.144;11.424;2024-03-23T15:12:23;7.50;99.90
12276;DHT22;6200;48.144;11.424;2024-03-23T15:14:49;7.30;99.90
12276;DHT22;6200;48.144;11.424;2024-03-23T15:17:14;7.30;99.90
12276;DHT22;6200;48.144;11.424;2024-03-23T15:19:40;7.30;99.90
12276;DHT22;6200;48.144;11.424;2024-03-23T15:22:08;7.20;99.90
12276;DHT22;6200;48.144;11.424;2024-03-23T15:24:34;7.20;99.90
12276;DHT22;6200;48.144;11.424;2024-03-23T15:27:01;7.30;99.90
12276;DHT22;6200;48.144;11.424;2024-03-23T15:29:27;7.30;99.90
12276;DHT22;6200;48.144;11.424;2024-03-23T15:31:52;7.30;99.90
12276;DHT22;6200;48.144;11.424;2024-03-23T15:34:21;7.30;99.90
12276;DHT22;6200;48.144;11.424;2024-03-23T15:36:49;7.30;99.90
12276;DHT22;6200;48.144;11.424;2024-03-23T15:39:16;7.30;99.90
12276;DHT22;6200;48.144;11.424;2024-03-23T15:41:46;7.30;99.90
12276;DHT22;6200;48.144;11.424;2024-03-23T15:44:12;7.30;99.90
12276;DHT22;6200;48.144;11.424;2024-03-23T15:46:37;7.20;99.90
12276;DHT22;6200;48.144;11.424;2024-03-23T15:49:03;7.20;99.90
12276;DHT22;6200;48.144;11.424;2024-03-23T15:51:29;7.30;99.90
12276;DHT22;6200;48.144;11.424;2024-03-23T15:53:59;7.40;99.90
12276;DHT22;6200;48.144;11.424;2024-03-23T15:56:24;7.50;99.90
12276;DHT22;6200;48.144;11.424;2024-03-23T15:58:50;7.50;99.90
12276;DHT22;6200;48.144;11.424;2024-03-23T16:01:15;7.30;99.90
12276;DHT22;6200;48.144;11.424;2024-03-23T16:03:41;7.40;99.90
12276;DHT22;6200;48.144;11.424;2024-03-23T16:06:07;7.30;99.90
12276;DHT22;6200;48.144;11.424;2024-03-23T16:08:33;7.30;99.90
12276;DHT22;6200;48.144;11.424;2024-03-23T16:11:03;7.20;99.90
12276;DHT22;6200;48.144;11.424;2024-03-23T16:13:30;7.20;99.90
12276;DHT22;6200;48.144;11.424;2024-03-23T16:15:56;7.20;99.90
12276;DHT22;6200;48.144;11.424;2024-03-23T16:18:23;7.20;99.90
12276;DHT22;6200;48.144;11.424;2024-03-23T16:21:04;7.20;99.90
12276;DHT22;6200;48.144;11.424;2024-03-23T16:23:32;7.20;99.90
12276;DHT22;6200;48.144;11.424;2024-03-23T16:25:58;7.10;99.90
12276;DHT22;6200;48.144;11.424;2024-03-23T16:28:28;7.10;99.90
12276;DHT22;6200;48.144;11.424;2024-03-23T16:31:00;7.10;99.90
12276;DHT22;6200;48.144;11.424;2024-03-23T16:33:26;7.10;99.90
12276;DHT22;6200;48.144;11.424;2024-03-23T16:35:59;7.20;99.90
12276;DHT22;6200;48.144;11.424;2024-03-23T16:38:26;7.20;99.90
12276;DHT22;6200;48.144;11.424;2024-03-23T16:43:23;7.20;99.90
12276;DHT22;6200;48.144;11.424;2024-03-23T16:46:03;7.20;99.90
12276;DHT22;6200;48.144;11.424;2024-03-23T16:48:30;7.20;99.90